Terminal Aerodrome Forecast
Issued by NWS

Home | Current Version | Previous Version | Text Only | Print | Product List | Glossary On
Versions: 1 2 3 4 5 6 7 8 9 10 11 12 13 14 15 16 17 18 19 20 21 22 23 24 25 26 27
000
FTUS46 KMTR 261120
TAFSFO
TAF
KSFO 261120Z 2612/2718 25009KT P6SM FEW008 BKN014 BKN030
     FM261600 26012KT P6SM VCSH FEW010 BKN016 BKN035
     FM262000 26016G20KT P6SM FEW012 BKN018 BKN040
     FM270200 27013KT P6SM FEW013 BKN020 BKN040
     FM270600 27018G24KT P6SM FEW008 BKN012 BKN025
     FM271200 28012KT P6SM FEW007 BKN011
     FM271600 29011KT P6SM FEW008 SCT012=

USA.gov is the U.S. government's official web portal to all federal, state and local government web resources and services.